Time;durP1;ratioP1;P1;durP2;ratioP2;P2;SDS_P1;SDS_P2;PMS_P1;PMS_P2;Temp;Humidity;BMP_temperature;BMP_pressure;BME280_temperature;BME280_humidity;BME280_pressure;Samples;Min_cycle;Max_cycle;Signal;HPM_P1;HPM_P2
2021/09/28 00:00:08;;;;;;;8.20;4.00;;;;;;;10.75;62.61;99322.08;113079;1195;95729;-71
2021/09/28 00:02:57;;;;;;;10.30;4.50;;;;;;;10.70;62.59;99320.26;113110;1195;107970;-71
2021/09/28 00:05:26;;;;;;;9.00;4.20;;;;;;;10.65;62.62;99323.65;113100;1195;97555;-71
2021/09/28 00:07:54;;;;;;;9.10;3.70;;;;;;;10.62;62.63;99326.33;113066;1195;96019;-71
2021/09/28 00:10:22;;;;;;;10.50;4.90;;;;;;;10.60;62.75;99327.90;113027;1196;110198;-71
2021/09/28 00:12:52;;;;;;;9.00;4.40;;;;;;;10.59;62.79;99327.29;113147;1195;97657;-71
2021/09/28 00:15:19;;;;;;;7.40;3.90;;;;;;;10.57;62.83;99328.94;113093;1187;108776;-71
2021/09/28 00:17:48;;;;;;;9.30;4.10;;;;;;;10.56;62.90;99330.42;113048;1195;95065;-72
2021/09/28 00:20:15;;;;;;;9.20;4.30;;;;;;;10.55;62.97;99332.46;113177;1195;97665;-71
2021/09/28 00:22:44;;;;;;;10.30;4.00;;;;;;;10.54;62.92;99333.61;113104;1187;111190;-70
2021/09/28 00:25:13;;;;;;;11.20;4.10;;;;;;;10.51;62.88;99333.80;113170;1195;97652;-71
2021/09/28 00:27:41;;;;;;;14.20;4.50;;;;;;;10.45;62.88;99331.86;113130;1195;107493;-71
2021/09/28 00:30:09;;;;;;;9.70;3.90;;;;;;;10.40;62.97;99332.18;113129;1195;98265;-71
2021/09/28 00:32:37;;;;;;;7.00;3.50;;;;;;;10.37;63.01;99330.97;113083;1195;97555;-71
2021/09/28 00:35:07;;;;;;;10.60;4.40;;;;;;;10.36;63.16;99332.31;113038;1195;112390;-71
2021/09/28 00:37:35;;;;;;;21.20;4.40;;;;;;;10.34;63.22;99329.62;113070;1195;97665;-71
2021/09/28 00:40:06;;;;;;;8.90;4.20;;;;;;;10.30;63.11;99331.82;113126;1195;107580;-70
2021/09/28 00:42:36;;;;;;;11.00;4.40;;;;;;;10.27;63.30;99330.55;113143;1195;97660;-69
2021/09/28 00:45:08;;;;;;;12.80;4.30;;;;;;;10.25;63.30;99331.20;113133;1195;95545;-70
2021/09/28 00:47:36;;;;;;;8.20;4.00;;;;;;;10.24;63.34;99334.48;113100;1195;111185;-70
2021/09/28 00:50:04;;;;;;;5.90;3.60;;;;;;;10.23;63.30;99335.63;114117;1195;97547;-70
2021/09/28 00:52:32;;;;;;;10.90;4.50;;;;;;;10.21;63.45;99333.64;113082;1195;107274;-70
2021/09/28 00:55:00;;;;;;;8.90;4.00;;;;;;;10.19;63.37;99335.04;113055;1195;97554;-70
2021/09/28 00:57:29;;;;;;;9.70;4.30;;;;;;;10.17;63.40;99334.09;113135;1195;97547;-71
2021/09/28 00:59:57;;;;;;;9.50;3.70;;;;;;;10.15;63.50;99332.79;113093;1195;110706;-71
2021/09/28 01:02:26;;;;;;;12.20;4.00;;;;;;;10.13;63.59;99335.08;113115;1195;97647;-71
2021/09/28 01:04:56;;;;;;;10.50;4.60;;;;;;;10.09;63.54;99332.49;113007;1195;107634;-74
2021/09/28 01:07:24;;;;;;;8.70;4.20;;;;;;;10.06;63.53;99334.13;113088;1195;97560;-70
2021/09/28 01:09:51;;;;;;;10.00;3.70;;;;;;;10.03;63.66;99332.76;113061;1195;97631;-70
2021/09/28 01:12:21;;;;;;;9.50;4.10;;;;;;;10.00;63.69;99330.94;113048;1195;110707;-69
2021/09/28 01:14:50;;;;;;;10.40;3.70;;;;;;;9.98;63.71;99326.46;113026;1195;95703;-70
2021/09/28 01:17:21;;;;;;;8.70;4.10;;;;;;;9.94;63.69;99323.00;113166;1195;107329;-70
2021/09/28 01:19:48;;;;;;;9.20;3.80;;;;;;;9.91;63.84;99320.54;112924;1195;98330;-71
2021/09/28 01:22:17;;;;;;;7.80;3.80;;;;;;;9.88;63.80;99318.28;113050;1195;97555;-70
2021/09/28 01:24:47;;;;;;;8.60;3.70;;;;;;;9.86;63.80;99315.41;113152;1195;112174;-71
2021/09/28 01:27:18;;;;;;;9.30;4.00;;;;;;;9.83;63.78;99316.48;113077;1195;97659;-69
2021/09/28 01:29:46;;;;;;;10.50;4.10;;;;;;;9.79;63.84;99316.89;113014;1195;108020;-71
2021/09/28 01:32:13;;;;;;;9.40;3.90;;;;;;;9.77;63.95;99321.30;113065;1195;97561;-70
2021/09/28 01:34:41;;;;;;;11.80;4.50;;;;;;;9.75;63.97;99321.20;113028;1195;97662;-69
2021/09/28 01:37:09;;;;;;;11.30;4.60;;;;;;;9.73;64.00;99319.22;112965;1196;111166;-70
2021/09/28 01:39:40;;;;;;;11.20;4.20;;;;;;;9.70;63.98;99321.37;112984;1195;97572;-71
2021/09/28 01:42:08;;;;;;;9.80;3.90;;;;;;;9.69;64.12;99324.10;113006;1196;106750;-70
2021/09/28 01:44:39;;;;;;;9.10;4.30;;;;;;;9.68;64.09;99323.25;113066;1195;98327;-70
2021/09/28 01:47:07;;;;;;;11.90;4.40;;;;;;;9.67;64.06;99324.92;112992;1195;97499;-70
2021/09/28 01:49:35;;;;;;;10.00;4.20;;;;;;;9.67;64.18;99328.13;113011;1195;109893;-69
2021/09/28 01:52:05;;;;;;;9.40;4.20;;;;;;;9.66;64.21;99324.65;113015;1196;97623;-70
2021/09/28 01:54:32;;;;;;;13.20;4.60;;;;;;;9.64;64.22;99325.14;113063;1197;107298;-70
2021/09/28 01:57:00;;;;;;;11.50;4.80;;;;;;;9.62;64.27;99322.79;113067;1195;97538;-71
2021/09/28 01:59:28;;;;;;;13.80;4.80;;;;;;;9.58;64.23;99324.46;113136;1195;97600;-70
2021/09/28 02:01:56;;;;;;;13.60;4.90;;;;;;;9.56;64.34;99322.66;113127;1195;110956;-69
2021/09/28 02:04:26;;;;;;;11.70;4.40;;;;;;;9.54;64.37;99321.17;113114;1195;95062;-69
2021/09/28 02:06:54;;;;;;;13.10;5.00;;;;;;;9.51;64.39;99326.98;113071;1197;107921;-69
2021/09/28 02:09:21;;;;;;;10.50;4.30;;;;;;;9.49;64.39;99326.64;113129;1195;95112;-71
2021/09/28 02:11:49;;;;;;;9.70;4.10;;;;;;;9.46;64.43;99333.18;113137;1195;97988;-70
2021/09/28 02:14:17;;;;;;;12.60;4.50;;;;;;;9.44;64.46;99334.02;113110;1195;110903;-70
2021/09/28 02:16:45;;;;;;;12.60;4.20;;;;;;;9.41;64.47;99335.98;113045;1196;97675;-69
2021/09/28 02:19:13;;;;;;;11.00;4.00;;;;;;;9.39;64.63;99337.67;113247;1195;107536;-69
2021/09/28 02:21:41;;;;;;;10.20;4.30;;;;;;;9.34;64.55;99333.55;113120;1195;97636;-69
2021/09/28 02:24:11;;;;;;;8.40;3.90;;;;;;;9.31;64.59;99338.34;113112;1196;97541;-69
2021/09/28 02:26:40;;;;;;;9.90;4.40;;;;;;;9.30;64.73;99335.09;113106;1195;111451;-69
2021/09/28 02:29:12;;;;;;;13.10;4.50;;;;;;;9.29;64.69;99335.83;113148;1195;95051;-70
2021/09/28 02:31:40;;;;;;;10.50;4.20;;;;;;;9.28;64.70;99333.59;113108;1195;107552;-70
2021/09/28 02:34:10;;;;;;;9.80;4.10;;;;;;;9.26;64.76;99333.73;113107;1195;97569;-70
2021/09/28 02:36:39;;;;;;;12.60;5.00;;;;;;;9.25;64.89;99334.52;113132;1196;97615;-70
2021/09/28 02:39:10;;;;;;;9.10;4.30;;;;;;;9.23;64.92;99336.52;113104;1196;111190;-70
2021/09/28 02:41:38;;;;;;;10.30;4.10;;;;;;;9.23;64.81;99333.88;113163;1195;95039;-68
2021/09/28 02:44:08;;;;;;;14.10;4.80;;;;;;;9.21;64.81;99332.29;113186;1195;107507;-68
2021/09/28 02:46:36;;;;;;;13.10;4.50;;;;;;;9.17;64.93;99329.66;113171;1195;97526;-70
2021/09/28 02:49:05;;;;;;;10.60;4.70;;;;;;;9.16;64.85;99331.52;113133;1195;97554;-71
2021/09/28 02:51:33;;;;;;;14.00;4.50;;;;;;;9.14;64.93;99330.21;113074;1196;110148;-72
2021/09/28 02:54:01;;;;;;;10.40;4.20;;;;;;;9.11;64.90;99327.92;113159;1196;97538;-72
2021/09/28 02:56:29;;;;;;;13.20;5.50;;;;;;;9.09;64.90;99332.11;113130;1195;107544;-70
2021/09/28 02:58:57;;;;;;;11.40;4.50;;;;;;;9.05;64.77;99331.31;113415;1196;97655;-69
2021/09/28 03:01:25;;;;;;;11.60;4.70;;;;;;;9.01;65.12;99331.54;113169;1195;95074;-70
2021/09/28 03:03:53;;;;;;;10.10;4.40;;;;;;;8.97;64.93;99329.33;113139;1196;111743;-71
2021/09/28 03:06:21;;;;;;;13.30;4.20;;;;;;;8.91;65.08;99332.17;113234;1195;97596;-68
2021/09/28 03:08:48;;;;;;;11.10;4.30;;;;;;;8.90;65.19;99332.80;113181;1195;105647;-69
2021/09/28 03:11:16;;;;;;;11.90;4.50;;;;;;;8.89;65.21;99336.04;113269;1195;97639;-71
2021/09/28 03:13:44;;;;;;;11.10;4.40;;;;;;;8.87;65.27;99333.34;113252;1195;97564;-70
2021/09/28 03:16:12;;;;;;;13.00;4.30;;;;;;;8.86;65.15;99331.39;113229;1195;111253;-70
2021/09/28 03:18:40;;;;;;;12.10;4.60;;;;;;;8.84;65.29;99330.27;113220;1195;97652;-69
2021/09/28 03:21:09;;;;;;;11.10;4.30;;;;;;;8.82;65.34;99327.08;113185;1197;107172;-69
2021/09/28 03:23:39;;;;;;;13.60;4.30;;;;;;;8.80;65.32;99331.58;113174;1196;95035;-69
2021/09/28 03:26:09;;;;;;;13.90;4.40;;;;;;;8.79;65.32;99329.38;113195;1195;97558;-69
2021/09/28 03:28:37;;;;;;;10.00;4.40;;;;;;;8.77;65.37;99330.33;113141;1195;111558;-69
2021/09/28 03:31:05;;;;;;;9.20;4.00;;;;;;;8.76;65.36;99328.49;113257;1195;96051;-70
2021/09/28 03:33:33;;;;;;;11.40;4.30;;;;;;;8.73;65.21;99329.94;113201;1195;107549;-70
2021/09/28 03:36:00;;;;;;;14.30;4.70;;;;;;;8.70;65.40;99333.41;113339;1195;98376;-71
2021/09/28 03:38:28;;;;;;;13.00;4.50;;;;;;;8.67;65.53;99331.49;113128;1197;97654;-70
2021/09/28 03:40:56;;;;;;;15.90;4.50;;;;;;;8.65;65.46;99338.52;113165;1195;111282;-70
2021/09/28 03:43:26;;;;;;;12.30;4.30;;;;;;;8.64;65.61;99338.04;113360;1195;97570;-69
2021/09/28 03:45:55;;;;;;;11.30;4.00;;;;;;;8.63;65.51;99339.70;113257;1195;108191;-70
2021/09/28 03:48:26;;;;;;;14.40;5.00;;;;;;;8.61;65.51;99342.27;113095;1195;97541;-69
2021/09/28 03:50:55;;;;;;;10.90;4.20;;;;;;;8.59;65.51;99344.67;113126;1195;97625;-69
2021/09/28 03:53:23;;;;;;;11.60;4.60;;;;;;;8.57;65.55;99351.33;113153;1195;111251;-70
2021/09/28 03:55:51;;;;;;;14.60;4.90;;;;;;;8.54;65.66;99353.83;113165;1196;97452;-70
2021/09/28 03:58:19;;;;;;;11.90;4.50;;;;;;;8.51;65.56;99356.68;113163;1196;108104;-70
2021/09/28 04:00:47;;;;;;;12.90;4.40;;;;;;;8.51;65.78;99362.16;113129;1195;97570;-70
2021/09/28 04:03:16;;;;;;;12.40;4.20;;;;;;;8.50;65.69;99362.21;113225;1195;97664;-69
2021/09/28 04:05:44;;;;;;;10.60;4.10;;;;;;;8.46;65.68;99361.51;113200;1196;111172;-70
2021/09/28 04:08:12;;;;;;;14.10;4.30;;;;;;;8.42;65.69;99361.07;113218;1195;97622;-70
2021/09/28 04:10:40;;;;;;;11.90;4.00;;;;;;;8.39;65.71;99358.19;113021;1197;107536;-70
2021/09/28 04:13:10;;;;;;;10.90;4.10;;;;;;;8.33;65.78;99361.55;113110;1197;97551;-69
2021/09/28 04:15:41;;;;;;;11.80;4.30;;;;;;;8.28;65.73;99357.48;113168;1195;97677;-71
2021/09/28 04:18:12;;;;;;;12.70;4.40;;;;;;;8.23;65.98;99364.44;113063;1197;111199;-71
2021/09/28 04:20:44;;;;;;;8.90;4.10;;;;;;;8.20;66.04;99370.08;113630;1196;97587;-71
2021/09/28 04:23:15;;;;;;;9.70;4.20;;;;;;;8.20;66.18;99374.69;113107;1195;106157;-71
2021/09/28 04:25:43;;;;;;;12.80;4.70;;;;;;;8.19;66.30;99377.75;113156;1195;97533;-72
2021/09/28 04:28:15;;;;;;;12.50;4.20;;;;;;;8.21;66.08;99384.18;113105;1195;96021;-71
2021/09/28 04:30:44;;;;;;;11.40;5.00;;;;;;;8.21;66.33;99388.92;113043;1197;111170;-71
2021/09/28 04:33:11;;;;;;;13.50;4.30;;;;;;;8.20;66.26;99391.12;113126;1194;97558;-71
2021/09/28 04:35:39;;;;;;;10.20;4.60;;;;;;;8.20;66.22;99391.81;113095;1195;107540;-71
2021/09/28 04:38:07;;;;;;;13.90;4.60;;;;;;;8.18;66.29;99390.65;113106;1195;97577;-71
2021/09/28 04:40:35;;;;;;;13.60;4.70;;;;;;;8.20;66.21;99397.31;113924;1195;95458;-72
2021/09/28 04:43:03;;;;;;;15.20;4.70;;;;;;;8.17;66.27;99396.02;112979;1197;112068;-72
2021/09/28 04:45:31;;;;;;;9.60;4.50;;;;;;;8.14;66.25;99393.61;113240;1196;97591;-71
2021/09/28 04:47:58;;;;;;;12.30;4.80;;;;;;;8.14;66.28;99395.49;113277;1195;107595;-72
2021/09/28 04:50:26;;;;;;;14.50;5.00;;;;;;;8.16;66.45;99398.58;113037;1196;95063;-73
2021/09/28 04:52:54;;;;;;;12.60;4.70;;;;;;;8.18;66.43;99398.63;113591;1196;97700;-72
2021/09/28 04:55:22;;;;;;;17.30;5.30;;;;;;;8.17;66.31;99397.27;113072;1195;110867;-72
2021/09/28 04:57:50;;;;;;;14.20;4.70;;;;;;;8.14;66.45;99395.52;112980;1195;97665;-73
2021/09/28 05:00:18;;;;;;;13.40;5.00;;;;;;;8.12;66.38;99399.52;113086;1195;107682;-72
2021/09/28 05:02:46;;;;;;;13.40;5.20;;;;;;;8.10;66.30;99400.68;113093;1195;95136;-72
2021/09/28 05:05:15;;;;;;;15.40;4.70;;;;;;;8.13;66.45;99400.55;113074;1195;95935;-72
2021/09/28 05:07:43;;;;;;;14.60;5.70;;;;;;;8.15;66.59;99400.23;113139;1195;111113;-71
2021/09/28 05:10:11;;;;;;;13.00;5.10;;;;;;;8.16;66.54;99404.91;113122;1196;96905;-70
2021/09/28 05:12:39;;;;;;;13.10;4.90;;;;;;;8.17;66.69;99405.91;113065;1195;107597;-71
2021/09/28 05:15:07;;;;;;;13.00;4.80;;;;;;;8.21;66.84;99410.86;113124;1196;97632;-70
2021/09/28 05:17:35;;;;;;;11.10;5.00;;;;;;;8.21;66.70;99411.02;113145;1196;97650;-71
2021/09/28 05:20:06;;;;;;;12.40;5.20;;;;;;;8.24;66.54;99414.22;113083;1195;111301;-71
2021/09/28 05:22:34;;;;;;;12.30;4.90;;;;;;;8.26;66.72;99415.36;112808;1197;97697;-70
2021/09/28 05:25:02;;;;;;;12.60;4.70;;;;;;;8.27;66.79;99416.86;113090;1195;107587;-70
2021/09/28 05:27:29;;;;;;;17.70;6.70;;;;;;;8.27;66.72;99421.63;113125;1196;97657;-70
2021/09/28 05:29:57;;;;;;;25.30;8.50;;;;;;;8.26;66.81;99420.64;113071;1196;97664;-70
2021/09/28 05:32:25;;;;;;;23.70;7.60;;;;;;;8.29;66.87;99420.85;113136;1195;110208;-70
2021/09/28 05:34:53;;;;;;;20.90;7.20;;;;;;;8.31;66.95;99419.46;113103;1194;97641;-69
2021/09/28 05:37:23;;;;;;;19.40;7.60;;;;;;;8.34;67.14;99418.58;113052;1195;107234;-70
2021/09/28 05:39:50;;;;;;;18.20;7.00;;;;;;;8.37;66.82;99416.85;113061;1196;95100;-71
2021/09/28 05:42:19;;;;;;;16.40;6.20;;;;;;;8.39;66.98;99421.47;112992;1195;95714;-71
2021/09/28 05:44:47;;;;;;;18.20;5.60;;;;;;;8.42;66.93;99416.88;113090;1197;111366;-71
2021/09/28 05:47:15;;;;;;;12.10;4.80;;;;;;;8.45;67.06;99422.55;113149;1195;97608;-69
2021/09/28 05:49:43;;;;;;;13.50;4.90;;;;;;;8.47;67.03;99421.91;113097;1196;106571;-71
2021/09/28 05:52:14;;;;;;;12.40;4.90;;;;;;;8.50;67.13;99421.25;113034;1195;97665;-70
2021/09/28 05:54:49;;;;;;;9.40;4.70;;;;;;;8.54;67.16;99426.17;113040;1195;95107;-73
2021/09/28 05:57:20;;;;;;;16.00;5.50;;;;;;;8.55;66.91;99426.08;113063;1195;111304;-70
2021/09/28 05:59:49;;;;;;;14.90;5.30;;;;;;;8.53;67.07;99428.52;113220;1196;95836;-70
2021/09/28 06:02:20;;;;;;;16.20;5.40;;;;;;;8.52;67.04;99431.02;113263;1194;108064;-70
2021/09/28 06:04:48;;;;;;;20.80;5.60;;;;;;;8.52;67.06;99437.38;113144;1195;97637;-70
2021/09/28 06:07:21;;;;;;;14.10;4.80;;;;;;;8.53;66.93;99438.42;113207;1195;95751;-70
2021/09/28 06:09:51;;;;;;;12.90;4.90;;;;;;;8.52;66.97;99439.30;113073;1196;112212;-70
2021/09/28 06:12:19;;;;;;;15.50;5.50;;;;;;;8.51;67.01;99440.46;113252;1195;97559;-71
2021/09/28 06:14:47;;;;;;;13.50;4.90;;;;;;;8.51;67.07;99439.41;113313;1195;108574;-72
2021/09/28 06:17:17;;;;;;;13.50;4.70;;;;;;;8.52;67.07;99435.61;113093;1195;97670;-72
2021/09/28 06:19:45;;;;;;;12.00;5.10;;;;;;;8.57;67.34;99436.23;113087;1197;97658;-72
2021/09/28 06:22:16;;;;;;;16.40;5.00;;;;;;;8.60;67.29;99440.98;113050;1195;111224;-72
2021/09/28 06:24:44;;;;;;;17.30;5.40;;;;;;;8.62;67.32;99441.23;113096;1196;97651;-72
2021/09/28 06:27:12;;;;;;;15.30;5.40;;;;;;;8.63;67.30;99442.20;113141;1196;107482;-72
2021/09/28 06:29:40;;;;;;;48.20;26.00;;;;;;;8.69;67.24;99445.80;113108;1195;95038;-71
2021/09/28 06:32:08;;;;;;;24.30;10.20;;;;;;;8.73;67.37;99453.30;113085;1187;97706;-70
2021/09/28 06:34:38;;;;;;;17.10;5.70;;;;;;;8.77;67.43;99462.23;113066;1197;110903;-71
2021/09/28 06:37:07;;;;;;;16.50;5.50;;;;;;;8.78;67.35;99469.80;113139;1195;97726;-70
2021/09/28 06:39:36;;;;;;;17.10;5.80;;;;;;;8.83;67.53;99474.65;113099;1197;108745;-70
2021/09/28 06:42:04;;;;;;;16.00;5.20;;;;;;;8.88;67.45;99475.45;113082;1196;97569;-71
2021/09/28 06:44:33;;;;;;;17.10;5.60;;;;;;;8.90;67.40;99477.95;113104;1195;97703;-72
2021/09/28 06:47:02;;;;;;;15.20;5.00;;;;;;;8.92;67.48;99477.69;113171;1195;111151;-71
2021/09/28 06:49:30;;;;;;;15.00;5.30;;;;;;;8.97;67.66;99473.50;113162;1195;95099;-70
2021/09/28 06:51:59;;;;;;;16.80;5.10;;;;;;;9.02;67.45;99477.27;113201;1196;107525;-71
2021/09/28 06:54:29;;;;;;;16.60;5.10;;;;;;;9.04;67.51;99478.53;113316;1196;95159;-70
2021/09/28 06:56:58;;;;;;;10.20;4.50;;;;;;;9.08;67.80;99486.44;113148;1195;94965;-71
2021/09/28 06:59:26;;;;;;;17.60;5.20;;;;;;;9.13;67.69;99488.82;113208;1196;111215;-72
2021/09/28 07:01:55;;;;;;;13.80;5.10;;;;;;;9.20;67.77;99489.07;113390;1195;97601;-72
2021/09/28 07:04:23;;;;;;;15.00;5.30;;;;;;;9.28;67.75;99494.83;113245;1195;107618;-71
2021/09/28 07:06:51;;;;;;;26.90;6.00;;;;;;;9.35;67.82;99495.83;113392;1195;97555;-71
2021/09/28 07:09:19;;;;;;;15.00;4.80;;;;;;;9.42;67.84;99499.81;113348;1195;95103;-71
2021/09/28 07:11:47;;;;;;;12.20;4.90;;;;;;;9.49;67.86;99503.09;113365;1195;111224;-72
2021/09/28 07:14:18;;;;;;;11.40;4.40;;;;;;;9.57;67.90;99500.15;113303;1195;97666;-71
2021/09/28 07:16:46;;;;;;;24.90;9.60;;;;;;;9.64;67.93;99498.99;113107;1197;107592;-71
2021/09/28 07:19:17;;;;;;;16.20;5.90;;;;;;;9.73;67.86;99498.69;113283;1195;97554;-70
2021/09/28 07:21:45;;;;;;;15.10;5.80;;;;;;;9.79;67.88;99498.95;113088;1196;97691;-71
2021/09/28 07:24:13;;;;;;;14.30;5.00;;;;;;;9.84;67.70;99508.21;113221;1196;111192;-71
2021/09/28 07:26:41;;;;;;;13.50;4.90;;;;;;;9.88;67.79;99514.89;113362;1196;97708;-70
2021/09/28 07:29:12;;;;;;;13.70;4.90;;;;;;;9.91;67.74;99515.92;113257;1195;107475;-71
2021/09/28 07:31:39;;;;;;;13.20;5.10;;;;;;;9.96;67.87;99512.81;112786;1196;97584;-70
2021/09/28 07:34:09;;;;;;;14.00;4.80;;;;;;;10.01;67.79;99514.05;113164;1197;95747;-72
2021/09/28 07:36:38;;;;;;;12.00;4.70;;;;;;;10.05;67.72;99517.38;113125;1195;111112;-71
2021/09/28 07:39:06;;;;;;;13.00;4.10;;;;;;;10.07;67.70;99519.58;113196;1195;95753;-71
2021/09/28 07:41:34;;;;;;;27.00;11.10;;;;;;;10.11;67.78;99520.71;113133;1196;107462;-71
2021/09/28 07:44:05;;;;;;;14.00;5.20;;;;;;;10.19;67.88;99522.17;113102;1196;97609;-72
2021/09/28 07:46:33;;;;;;;17.10;5.00;;;;;;;10.28;67.93;99524.27;113079;1195;97564;-71
2021/09/28 07:49:01;;;;;;;14.40;4.30;;;;;;;10.38;68.02;99523.10;113056;1196;111100;-72
2021/09/28 07:51:29;;;;;;;14.50;4.70;;;;;;;10.47;67.91;99523.96;112981;1196;95084;-72
2021/09/28 07:54:00;;;;;;;15.30;4.80;;;;;;;10.55;67.98;99532.80;113128;1195;107511;-71
2021/09/28 07:56:29;;;;;;;10.30;4.20;;;;;;;10.62;67.85;99535.21;113131;1197;97599;-71
2021/09/28 07:58:59;;;;;;;10.80;4.40;;;;;;;10.71;67.99;99539.09;113138;1194;98065;-71
2021/09/28 08:01:27;;;;;;;11.40;4.90;;;;;;;10.81;68.00;99541.94;113150;1195;110749;-72
2021/09/28 08:03:59;;;;;;;12.60;4.50;;;;;;;10.93;67.98;99544.77;113217;1195;95712;-72
2021/09/28 08:06:30;;;;;;;12.50;4.60;;;;;;;11.01;67.88;99541.71;113114;1197;107506;-73
2021/09/28 08:08:58;;;;;;;11.70;4.80;;;;;;;11.04;67.80;99544.70;112863;1196;97633;-73
2021/09/28 08:11:26;;;;;;;13.10;5.10;;;;;;;11.09;67.73;99547.05;113135;1196;97591;-73
2021/09/28 08:13:56;;;;;;;22.20;8.70;;;;;;;11.16;67.79;99546.91;113138;1195;111216;-71
2021/09/28 08:16:27;;;;;;;105.60;57.00;;;;;;;11.26;67.86;99547.84;113179;1195;97572;-72
2021/09/28 08:18:57;;;;;;;24.40;10.30;;;;;;;11.37;67.98;99551.02;113187;1194;107499;-72
2021/09/28 08:21:25;;;;;;;18.60;6.70;;;;;;;11.48;68.00;99554.35;113388;1196;97593;-71
2021/09/28 08:23:53;;;;;;;28.50;12.80;;;;;;;11.59;67.97;99555.90;113433;1195;95153;-72
2021/09/28 08:29:09;;;;;;;16.80;5.30;;;;;;;12.30;68.18;99553.44;113222;1195;97624;-71
2021/09/28 08:31:43;;;;;;;11.10;4.90;;;;;;;13.36;68.41;99554.05;113183;1195;108009;-71
2021/09/28 08:34:14;;;;;;;13.50;4.50;;;;;;;14.24;68.10;99548.34;113173;1195;95999;-73
2021/09/28 08:36:47;;;;;;;10.10;4.30;;;;;;;14.97;68.00;99544.00;113239;1195;97585;-72
2021/09/28 08:39:18;;;;;;;14.40;4.30;;;;;;;15.68;67.72;99549.33;113182;1195;110912;-72
2021/09/28 08:41:51;;;;;;;12.70;4.20;;;;;;;16.31;67.77;99550.88;113164;1195;97672;-71
2021/09/28 08:44:19;;;;;;;13.90;4.60;;;;;;;16.83;67.17;99556.25;113308;1195;106172;-72
2021/09/28 08:46:51;;;;;;;12.40;4.70;;;;;;;17.18;67.16;99559.34;113199;1195;97718;-72
2021/09/28 08:49:23;;;;;;;16.30;5.50;;;;;;;17.50;67.02;99560.86;113271;1195;97668;-71
2021/09/28 08:51:52;;;;;;;16.30;4.80;;;;;;;17.79;66.83;99556.70;113185;1195;111252;-72
2021/09/28 08:54:23;;;;;;;9.30;4.20;;;;;;;18.06;67.18;99556.35;113253;1195;95687;-72
2021/09/28 08:56:51;;;;;;;10.80;3.90;;;;;;;18.30;66.73;99556.22;113157;1196;107519;-72
2021/09/28 08:59:19;;;;;;;11.20;4.20;;;;;;;18.51;66.77;99557.34;113189;1196;97715;-72
2021/09/28 09:02:06;;;;;;;10.40;3.90;;;;;;;18.70;66.84;99548.92;113153;1195;97615;-71
2021/09/28 09:04:37;;;;;;;21.70;8.80;;;;;;;18.87;66.26;99557.96;113123;1195;111280;-71
2021/09/28 09:07:25;;;;;;;8.50;3.90;;;;;;;18.86;66.19;99557.16;113183;1195;95130;-69
2021/09/28 09:09:53;;;;;;;14.30;6.00;;;;;;;18.93;66.03;99556.89;113217;1195;107546;-72
2021/09/28 09:12:36;;;;;;;14.40;4.80;;;;;;;18.98;66.08;99561.17;113190;1195;98340;-73
2021/09/28 09:15:31;;;;;;;13.10;4.60;;;;;;;19.02;65.81;99560.98;113292;1195;97610;-72
2021/09/28 09:18:05;;;;;;;12.40;4.00;;;;;;;19.13;65.81;99567.70;112922;1195;111408;-72
2021/09/28 09:20:37;;;;;;;13.50;5.10;;;;;;;19.29;65.81;99557.95;113390;1196;97587;-71
2021/09/28 09:23:36;;;;;;;10.00;3.60;;;;;;;19.50;65.60;99555.71;113319;1195;107530;-72
2021/09/28 09:26:24;;;;;;;13.90;4.40;;;;;;;19.82;65.75;99553.25;113188;1195;95035;-71
2021/09/28 09:28:57;;;;;;;8.70;4.10;;;;;;;20.20;65.13;99556.98;113188;1180;97695;-72
2021/09/28 09:31:36;;;;;;;13.00;4.10;;;;;;;20.46;65.07;99557.12;113186;1195;110855;-72
2021/09/28 09:34:09;;;;;;;12.40;4.00;;;;;;;20.89;64.97;99557.04;113208;1194;97572;-74
2021/09/28 09:36:39;;;;;;;12.60;4.30;;;;;;;21.15;64.57;99556.39;112961;1195;107962;-73
2021/09/28 09:39:09;;;;;;;11.90;4.80;;;;;;;21.18;64.15;99551.30;113122;1195;97615;-73
2021/09/28 09:41:42;;;;;;;35.30;18.90;;;;;;;21.08;64.03;99551.71;113358;1195;97591;-72
2021/09/28 09:44:12;;;;;;;;;;;;;;;21.07;63.11;99547.35;113168;1195;111138;-72
2021/09/28 09:46:43;;;;;;;16.60;5.50;;;;;;;21.02;63.63;99547.14;113211;1195;97612;-71
2021/09/28 09:49:23;;;;;;;11.70;4.50;;;;;;;21.02;63.17;99552.63;113383;1195;108807;-74
2021/09/28 09:51:59;;;;;;;13.50;4.30;;;;;;;21.04;63.24;99554.11;113268;1195;98347;-73
2021/09/28 09:54:39;;;;;;;10.90;4.30;;;;;;;21.10;62.86;99553.71;113252;1195;98707;-72
2021/09/28 09:57:14;;;;;;;13.40;3.70;;;;;;;21.04;62.68;99558.01;113282;1195;112300;-73
2021/09/28 09:59:42;;;;;;;8.30;3.40;;;;;;;20.89;61.75;99560.66;113415;1195;99479;-71
2021/09/28 10:02:10;;;;;;;12.40;3.80;;;;;;;20.78;61.99;99559.30;113281;1195;107511;-72
2021/09/28 10:04:41;;;;;;;11.40;4.10;;;;;;;20.78;61.92;99558.02;113351;1195;97702;-72
2021/09/28 10:07:10;;;;;;;8.80;4.50;;;;;;;20.81;61.40;99559.90;113321;1195;95416;-74
2021/09/28 10:09:48;;;;;;;12.50;4.10;;;;;;;20.71;61.44;99565.80;113227;1195;111179;-73
2021/09/28 10:12:20;;;;;;;12.60;3.80;;;;;;;20.54;60.83;99564.13;113177;1195;98254;-72
2021/09/28 10:14:47;;;;;;;11.50;3.80;;;;;;;20.40;61.14;99566.71;113180;1195;107616;-76
2021/09/28 10:17:28;;;;;;;11.00;4.20;;;;;;;20.35;60.84;99571.56;113220;1195;97592;-73
2021/09/28 10:20:03;;;;;;;12.50;5.00;;;;;;;20.26;60.60;99571.39;113340;1195;95019;-73
2021/09/28 10:22:52;;;;;;;10.10;3.90;;;;;;;20.06;60.22;99571.16;113303;1195;110742;-74
2021/09/28 10:25:33;;;;;;;10.00;3.90;;;;;;;19.91;59.83;99573.75;113205;1195;97690;-75
2021/09/28 10:28:04;;;;;;;12.40;4.80;;;;;;;19.87;60.12;99577.09;113235;1195;107606;-73
2021/09/28 10:30:35;;;;;;;25.40;12.00;;;;;;;19.75;59.43;99572.71;113224;1195;97705;-72
2021/09/28 10:33:05;;;;;;;14.00;5.60;;;;;;;19.74;59.74;99573.35;113075;1196;97684;-73
2021/09/28 10:35:57;;;;;;;11.60;4.80;;;;;;;19.72;59.17;99568.55;113087;1195;111156;-72
2021/09/28 10:38:45;;;;;;;12.70;4.20;;;;;;;19.65;59.42;99571.02;113792;1195;97573;-72
2021/09/28 10:41:29;;;;;;;17.30;5.00;;;;;;;19.65;59.15;99571.80;113159;1197;107777;-72
2021/09/28 10:44:40;;;;;;;12.20;4.40;;;;;;;19.64;59.02;99574.59;113138;1195;95888;-73
2021/09/28 10:47:55;;;;;;;14.10;4.50;;;;;;;19.66;58.88;99572.38;113224;1195;95757;-73
2021/09/28 10:50:29;;;;;;;12.20;4.40;;;;;;;19.63;58.41;99575.70;112735;1200;110937;-73
2021/09/28 10:53:20;;;;;;;13.40;4.10;;;;;;;19.65;58.54;99574.77;112880;1195;98201;-69
2021/09/28 10:56:07;;;;;;;16.70;3.90;;;;;;;19.75;58.33;99574.66;113195;1195;107687;-72
2021/09/28 10:59:03;;;;;;;16.70;4.60;;;;;;;19.82;58.39;99575.21;112902;1196;97649;-72
2021/09/28 11:01:33;;;;;;;13.40;4.40;;;;;;;19.65;57.50;99569.44;114190;1194;97567;-73
2021/09/28 11:04:22;;;;;;;13.10;4.50;;;;;;;19.38;57.44;99566.04;113020;1195;111169;-73
2021/09/28 11:06:58;;;;;;;24.20;9.50;;;;;;;19.16;57.48;99570.77;112944;1196;97696;-72
2021/09/28 11:09:47;;;;;;;18.20;5.10;;;;;;;19.08;57.26;99571.59;113003;1195;107725;-72
2021/09/28 11:12:18;;;;;;;13.40;4.60;;;;;;;19.08;56.69;99573.43;113000;1195;97651;-73
2021/09/28 11:14:46;;;;;;;16.00;4.50;;;;;;;19.09;57.15;99566.84;112880;1196;97671;-72
2021/09/28 11:17:17;;;;;;;12.20;3.80;;;;;;;19.09;57.01;99567.92;113405;1195;110987;-71
2021/09/28 11:19:46;;;;;;;15.00;4.80;;;;;;;19.14;56.81;99567.56;113902;1195;95586;-73
2021/09/28 11:22:22;;;;;;;8.40;3.70;;;;;;;19.21;57.02;99567.08;114391;1195;107495;-74
2021/09/28 11:24:51;;;;;;;8.60;3.40;;;;;;;19.28;56.69;99563.27;112999;1196;97673;-73
2021/09/28 11:27:19;;;;;;;16.70;4.10;;;;;;;19.35;56.71;99564.58;113069;1196;97654;-72
2021/09/28 11:29:47;;;;;;;15.60;4.10;;;;;;;19.34;56.64;99564.86;113029;1195;111171;-72
2021/09/28 11:32:15;;;;;;;27.30;11.60;;;;;;;19.28;56.29;99564.04;113113;1195;97662;-73
2021/09/28 11:34:43;;;;;;;15.80;5.20;;;;;;;19.23;56.29;99566.63;113087;1196;107527;-75
2021/09/28 11:37:24;;;;;;;21.30;4.60;;;;;;;19.17;56.20;99573.15;112850;1196;97982;-74